Time;durP1;ratioP1;P1;durP2;ratioP2;P2;SDS_P1;SDS_P2;PMS_P1;PMS_P2;Temp;Humidity;BMP_temperature;BMP_pressure;BME280_temperature;BME280_humidity;BME280_pressure;Samples;Min_cycle;Max_cycle;Signal;HPM_P1;HPM_P2
2023/12/17 00:06:34;;;;;;;0.10;0.10;;;;;;;8.25;79.71;102896.75;15678053;28;20052;-49
2023/12/17 00:14:11;;;;;;;0.35;0.35;;;;;;;8.44;78.71;102923.56;15671815;28;20067;-47
2023/12/17 00:21:45;;;;;;;0.13;0.13;;;;;;;8.54;78.48;102919.03;15677854;28;20045;-48
2023/12/17 00:29:20;;;;;;;2.42;1.67;;;;;;;8.51;78.69;102926.50;15661689;28;20033;-47
2023/12/17 00:36:54;;;;;;;0.30;0.30;;;;;;;8.66;78.43;102930.41;15666935;28;20079;-49
2023/12/17 00:44:29;;;;;;;0.10;0.10;;;;;;;8.50;78.50;102912.28;15669275;28;20083;-49
2023/12/17 00:52:02;;;;;;;0.60;0.60;;;;;;;8.26;79.45;102898.47;15674191;28;20037;-48
2023/12/17 00:59:36;;;;;;;0.40;0.40;;;;;;;8.63;78.37;102874.50;15665879;28;20051;-49
2023/12/17 01:07:10;;;;;;;0.35;0.35;;;;;;;8.25;79.54;102904.78;15679219;28;20037;-48
2023/12/17 01:14:44;;;;;;;0.55;0.55;;;;;;;8.44;78.75;102918.22;15670475;28;20403;-52
2023/12/17 01:22:23;;;;;;;0.10;0.10;;;;;;;8.41;79.56;102919.31;15672641;28;20041;-50
2023/12/17 01:30:00;;;;;;;0.93;0.55;;;;;;;8.36;79.81;102928.72;15682456;28;20144;-50
2023/12/17 01:37:35;;;;;;;0.10;0.10;;;;;;;8.40;79.74;102932.84;15674821;28;20079;-48
2023/12/17 01:45:10;;;;;;;0.25;0.25;;;;;;;8.30;80.14;102929.28;15671899;28;20136;-50
2023/12/17 01:52:43;;;;;;;0.68;0.68;;;;;;;8.36;80.25;102929.59;15671883;28;20098;-51
2023/12/17 02:00:18;;;;;;;;;;;;;;;8.50;79.70;102939.03;15675467;28;20067;-51
2023/12/17 02:07:51;;;;;;;0.63;0.63;;;;;;;8.43;79.61;102935.22;15673478;28;19921;-49
2023/12/17 02:15:30;;;;;;;0.22;0.22;;;;;;;8.45;80.00;102951.16;15666485;28;20466;-48
2023/12/17 02:23:05;;;;;;;0.40;0.40;;;;;;;8.69;78.49;102947.03;15674662;28;20080;-48
2023/12/17 02:30:38;;;;;;;0.00;0.00;;;;;;;8.53;79.82;102943.25;15673528;28;20094;-50
2023/12/17 02:38:13;;;;;;;2.20;1.17;;;;;;;8.71;78.87;102935.34;15671650;28;20037;-47
2023/12/17 02:45:47;;;;;;;0.13;0.13;;;;;;;8.39;80.66;102936.50;15682330;28;20110;-49
2023/12/17 02:53:23;;;;;;;2.00;0.30;;;;;;;8.33;80.78;102932.53;15674704;28;20074;-46
2023/12/17 03:00:57;;;;;;;0.08;0.08;;;;;;;8.69;79.20;102925.63;15672017;28;20140;-48
2023/12/17 03:08:31;;;;;;;;;;;;;;;8.62;80.04;102927.16;15662728;28;20526;-50
2023/12/17 03:16:08;;;;;;;0.20;0.20;;;;;;;8.72;79.75;102920.94;15676450;28;20302;-50
2023/12/17 03:23:43;;;;;;;0.57;0.57;;;;;;;8.69;79.52;102914.91;15655482;28;20069;-49
2023/12/17 03:31:17;;;;;;;0.88;0.38;;;;;;;8.88;77.89;102911.34;15670855;28;20044;-47
2023/12/17 03:38:52;;;;;;;0.43;0.43;;;;;;;8.44;79.65;102918.22;15671708;28;20268;-47
2023/12/17 03:46:26;;;;;;;0.95;0.93;;;;;;;8.80;78.19;102913.88;15675326;28;20489;-49
2023/12/17 03:54:01;;;;;;;1.02;0.70;;;;;;;9.14;77.07;102908.00;15667481;28;20490;-44
2023/12/17 04:01:44;;;;;;;0.28;0.28;;;;;;;8.47;79.92;102927.75;15672998;28;20516;-48
2023/12/17 04:09:20;;;;;;;1.15;0.88;;;;;;;8.59;79.55;102919.44;15676268;28;20551;-50
2023/12/17 04:16:57;;;;;;;1.10;1.00;;;;;;;8.51;79.01;102894.38;15666916;28;20584;-49
2023/12/17 04:24:34;;;;;;;0.10;0.10;;;;;;;8.78;79.17;102915.03;15683305;28;20497;-53
2023/12/17 04:32:08;;;;;;;0.75;0.60;;;;;;;8.63;79.31;102910.13;15664019;28;20094;-50
2023/12/17 04:39:43;;;;;;;0.47;0.47;;;;;;;8.17;80.36;102876.09;15660789;28;20532;-53
2023/12/17 04:47:16;;;;;;;0.38;0.38;;;;;;;8.29;81.22;102916.91;15670391;28;20449;-51
2023/12/17 04:54:52;;;;;;;0.38;0.38;;;;;;;8.37;80.46;102912.56;15664056;28;20099;-50
2023/12/17 05:02:26;;;;;;;0.13;0.13;;;;;;;8.19;82.17;102906.19;15675397;28;20128;-49
2023/12/17 05:10:07;;;;;;;2.70;0.73;;;;;;;8.37;80.84;102906.38;15680925;28;20434;-52
2023/12/17 05:17:40;;;;;;;0.05;0.05;;;;;;;8.16;82.06;102898.47;15686283;28;20429;-50
2023/12/17 05:25:15;;;;;;;0.30;0.30;;;;;;;8.30;81.55;102889.16;15692697;28;20127;-51
2023/12/17 05:32:48;;;;;;;0.30;0.30;;;;;;;8.64;80.64;102900.28;15673486;28;20524;-49
2023/12/17 05:40:23;;;;;;;0.85;0.85;;;;;;;8.34;81.00;102894.06;15688477;28;20033;-52
2023/12/17 05:47:57;;;;;;;0.52;0.52;;;;;;;8.32;81.15;102908.59;15748321;22;20047;-47
2023/12/17 05:55:33;;;;;;;0.20;0.20;;;;;;;8.48;80.87;102914.22;15776096;28;20037;-49
2023/12/17 06:03:12;;;;;;;1.30;0.57;;;;;;;8.85;79.38;102905.41;15735966;28;20497;-47
2023/12/17 06:10:47;;;;;;;0.73;0.65;;;;;;;8.73;79.93;102909.28;15708339;28;20405;-51
2023/12/17 06:18:21;;;;;;;0.30;0.30;;;;;;;8.71;79.68;102912.06;15727845;28;20037;-52
2023/12/17 06:25:56;;;;;;;0.00;0.00;;;;;;;8.16;81.60;102891.28;15728701;28;20405;-52
2023/12/17 06:33:30;;;;;;;0.10;0.10;;;;;;;8.49;80.26;102877.63;15733971;28;20106;-47
2023/12/17 06:41:05;;;;;;;0.32;0.32;;;;;;;8.63;79.32;102901.28;15722598;28;20059;-46
2023/12/17 06:48:41;;;;;;;0.00;0.00;;;;;;;8.82;78.38;102917.28;15722275;28;20072;-49
2023/12/17 06:56:16;;;;;;;1.42;1.35;;;;;;;8.85;77.88;102926.84;15737189;28;20053;-49
2023/12/17 07:03:51;;;;;;;1.88;1.17;;;;;;;8.68;78.59;102929.28;15734940;28;20071;-50
2023/12/17 07:11:25;;;;;;;0.20;0.20;;;;;;;8.78;77.71;102926.59;15703225;28;20099;-49
2023/12/17 07:18:59;;;;;;;0.00;0.00;;;;;;;8.86;77.90;102931.19;15736472;28;20036;-46
2023/12/17 07:26:34;;;;;;;0.43;0.43;;;;;;;9.01;77.23;102918.22;15741116;28;20602;-45
2023/12/17 07:34:07;;;;;;;0.28;0.28;;;;;;;8.86;77.20;102901.75;15741716;28;20441;-49
2023/12/17 07:41:43;;;;;;;0.65;0.65;;;;;;;8.86;77.52;102902.63;15704879;28;20037;-51
2023/12/17 07:49:16;;;;;;;0.20;0.20;;;;;;;8.75;77.48;102912.63;15719656;28;20044;-48
2023/12/17 07:56:51;;;;;;;;;;;;;;;8.85;76.84;102916.97;15713165;28;20041;-52
2023/12/17 08:04:24;;;;;;;0.10;0.10;;;;;;;8.96;76.09;102929.38;15722971;28;19924;-47
2023/12/17 08:12:02;;;;;;;2.00;0.63;;;;;;;8.92;76.77;102933.31;15724594;28;20068;-49
2023/12/17 08:19:36;;;;;;;0.00;0.00;;;;;;;9.00;75.67;102924.53;15716188;28;20040;-48
2023/12/17 08:27:14;;;;;;;0.30;0.30;;;;;;;8.90;75.55;102916.53;15724141;28;20048;-49
2023/12/17 08:34:48;;;;;;;0.22;0.22;;;;;;;8.99;75.19;102923.69;15723611;28;20489;-49
2023/12/17 08:42:22;;;;;;;;;;;;;;;8.96;75.69;102925.84;15721614;28;20060;-49
2023/12/17 08:49:59;;;;;;;0.35;0.35;;;;;;;9.03;75.01;102929.59;15720007;28;19928;-47
2023/12/17 08:57:34;;;;;;;0.00;0.00;;;;;;;8.84;75.18;102919.81;15721475;28;20094;-47
2023/12/17 09:05:08;;;;;;;0.00;0.00;;;;;;;8.88;75.16;102923.88;15714027;28;20052;-49
2023/12/17 09:12:45;;;;;;;0.10;0.10;;;;;;;8.97;75.02;102927.53;15724606;28;20064;-48
2023/12/17 09:20:22;;;;;;;0.32;0.22;;;;;;;8.54;76.19;102934.25;15722563;28;20044;-49
2023/12/17 09:27:58;;;;;;;1.10;0.30;;;;;;;9.24;73.87;102930.25;15721834;28;20450;-47
2023/12/17 09:35:32;;;;;;;0.00;0.00;;;;;;;9.08;73.96;102928.19;15729399;28;20060;-52
2023/12/17 09:43:10;;;;;;;0.20;0.20;;;;;;;8.81;74.80;102938.81;15735300;28;20044;-50
2023/12/17 09:50:44;;;;;;;0.20;0.20;;;;;;;8.87;75.00;102946.31;15737365;28;20036;-49
2023/12/17 09:58:19;;;;;;;0.17;0.17;;;;;;;9.00;74.20;102924.53;15740819;28;20071;-49
2023/12/17 10:05:53;;;;;;;0.00;0.00;;;;;;;9.28;72.61;102907.53;15729063;28;20568;-50
2023/12/17 10:13:28;;;;;;;0.00;0.00;;;;;;;8.98;74.27;102910.47;15735443;28;20045;-50
2023/12/17 10:21:04;;;;;;;0.00;0.00;;;;;;;8.96;73.92;102885.66;15741283;28;20412;-50
2023/12/17 10:28:44;;;;;;;0.00;0.00;;;;;;;8.87;74.96;102882.88;15714568;28;20144;-53
2023/12/17 10:36:19;;;;;;;0.38;0.22;;;;;;;9.18;73.38;102885.25;15728014;28;20570;-49
2023/12/17 10:43:55;;;;;;;0.10;0.10;;;;;;;9.30;72.80;102865.31;15737804;28;20045;-51
2023/12/17 10:51:32;;;;;;;0.00;0.00;;;;;;;9.23;72.67;102839.25;15734815;28;20052;-49
2023/12/17 10:59:12;;;;;;;0.22;0.22;;;;;;;9.25;72.96;102843.50;15707880;28;20052;-51
2023/12/17 11:06:46;;;;;;;0.17;0.17;;;;;;;9.57;71.44;102848.38;15730512;28;20041;-50
2023/12/17 11:14:20;;;;;;;;;;;;;;;9.63;71.51;102833.50;15703266;28;20102;-51
2023/12/17 11:21:55;;;;;;;0.77;0.75;;;;;;;9.56;71.71;102810.97;15735894;28;19924;-53
2023/12/17 11:29:37;;;;;;;1.88;0.57;;;;;;;9.67;70.76;102806.25;15740471;28;20044;-53
2023/12/17 11:37:12;;;;;;;0.00;0.00;;;;;;;9.78;70.59;102786.38;15731430;28;20044;-50
2023/12/17 11:44:48;;;;;;;0.22;0.17;;;;;;;9.83;70.42;102791.28;15728804;28;20048;-54
2023/12/17 11:52:22;;;;;;;1.80;0.25;;;;;;;9.54;70.66;102786.16;15739989;28;20076;-52
2023/12/17 11:59:58;;;;;;;0.00;0.00;;;;;;;11.02;67.41;102762.81;15739190;28;20052;-50
2023/12/17 12:07:33;;;;;;;0.03;0.03;;;;;;;11.68;64.37;102758.38;15735769;28;20032;-51
2023/12/17 12:15:09;;;;;;;;;;;;;;;11.39;64.86;102750.78;15736212;28;20554;-54
2023/12/17 12:22:45;;;;;;;0.28;0.28;;;;;;;11.60;64.08;102740.34;15737526;28;19946;-53
2023/12/17 12:30:29;;;;;;;0.13;0.13;;;;;;;11.33;63.85;102749.59;15738125;28;20267;-50
2023/12/17 12:38:17;;;;;;;2.78;0.75;;;;;;;10.90;65.43;102737.22;15736748;28;20036;-50
2023/12/17 12:45:53;;;;;;;0.30;0.30;;;;;;;10.98;64.24;102723.81;15726109;28;20040;-54
2023/12/17 12:53:27;;;;;;;2.25;0.40;;;;;;;11.98;61.84;102714.66;15729702;28;20048;-51
2023/12/17 13:01:02;;;;;;;0.28;0.28;;;;;;;11.38;64.56;102714.16;15722393;28;20127;-50
2023/12/17 13:08:35;;;;;;;0.43;0.43;;;;;;;11.47;63.04;102705.91;15736553;28;20059;-49
2023/12/17 13:16:11;;;;;;;0.88;0.85;;;;;;;10.94;65.16;102701.81;15731322;28;20121;-50
2023/12/17 13:23:49;;;;;;;0.13;0.13;;;;;;;10.60;65.69;102691.13;15744784;28;20044;-54
2023/12/17 13:31:24;;;;;;;0.60;0.60;;;;;;;10.16;67.41;102688.56;15748104;28;20059;-50
2023/12/17 13:38:58;;;;;;;0.10;0.10;;;;;;;9.83;67.75;102676.78;15746800;28;20037;-50
2023/12/17 13:46:33;;;;;;;0.70;0.28;;;;;;;10.22;67.12;102681.72;15737810;28;20044;-51
2023/12/17 13:54:06;;;;;;;0.00;0.00;;;;;;;9.94;67.58;102679.22;15739606;28;20039;-52
2023/12/17 14:01:41;;;;;;;0.00;0.00;;;;;;;9.65;68.09;102670.63;15725417;28;20087;-51
2023/12/17 14:09:14;;;;;;;0.20;0.20;;;;;;;9.64;68.26;102661.75;15742763;28;20397;-51
2023/12/17 14:16:49;;;;;;;0.03;0.03;;;;;;;9.60;68.04;102668.41;15742427;28;20114;-53
2023/12/17 14:24:23;;;;;;;0.50;0.50;;;;;;;9.50;68.72;102662.31;15742789;28;20097;-51
2023/12/17 14:32:02;;;;;;;0.00;0.00;;;;;;;9.06;70.34;102662.28;15739782;28;20063;-49
2023/12/17 14:39:36;;;;;;;1.17;0.45;;;;;;;9.17;70.08;102679.97;15735900;28;20436;-51
2023/12/17 14:47:13;;;;;;;0.25;0.25;;;;;;;8.83;71.43;102679.78;15730504;28;20148;-53
2023/12/17 14:54:47;;;;;;;0.85;0.38;;;;;;;8.46;72.67;102669.16;15737406;28;20075;-52
2023/12/17 15:02:22;;;;;;;;;;;;;;;8.36;72.95;102661.16;15740055;28;20489;-51
2023/12/17 15:10:05;;;;;;;0.73;0.73;;;;;;;8.09;74.14;102645.94;15694384;28;19921;-53
2023/12/17 15:17:40;;;;;;;0.17;0.17;;;;;;;8.17;73.96;102651.38;15674960;28;20052;-52
2023/12/17 15:25:14;;;;;;;0.85;0.70;;;;;;;7.74;74.59;102647.47;15672795;28;20458;-51
2023/12/17 15:32:54;;;;;;;0.10;0.10;;;;;;;7.73;74.75;102651.09;15675395;28;20036;-54
2023/12/17 15:40:29;;;;;;;0.20;0.20;;;;;;;7.61;75.65;102646.94;15673338;28;20075;-53
2023/12/17 15:48:05;;;;;;;0.57;0.45;;;;;;;7.54;76.00;102649.31;15709231;28;20105;-53
2023/12/17 15:55:38;;;;;;;0.22;0.22;;;;;;;7.58;75.23;102650.72;15733683;28;20036;-52
2023/12/17 16:03:15;;;;;;;0.60;0.60;;;;;;;7.45;75.86;102647.50;15729162;28;20062;-52
2023/12/17 16:10:49;;;;;;;1.10;0.90;;;;;;;7.40;75.88;102628.38;15731628;28;20112;-54
2023/12/17 16:18:25;;;;;;;0.00;0.00;;;;;;;7.52;75.67;102627.25;15716082;28;20059;-50
2023/12/17 16:25:58;;;;;;;0.00;0.00;;;;;;;7.28;76.09;102635.72;15730632;28;20436;-53
2023/12/17 16:33:33;;;;;;;;;;;;;;;7.14;76.16;102620.13;15732463;28;20111;-51
2023/12/17 16:41:07;;;;;;;0.45;0.30;;;;;;;7.42;75.29;102615.75;15731465;28;19931;-50
2023/12/17 16:48:43;;;;;;;0.82;0.77;;;;;;;7.24;75.45;102617.44;15724064;28;20501;-52
2023/12/17 16:56:17;;;;;;;0.13;0.13;;;;;;;7.24;75.33;102612.94;15716179;28;20455;-50
2023/12/17 17:03:51;;;;;;;0.65;0.52;;;;;;;7.17;75.24;102601.13;15752672;28;20148;-49
2023/12/17 17:11:25;;;;;;;0.00;0.00;;;;;;;6.80;76.84;102606.34;15750288;28;20044;-52
2023/12/17 17:19:01;;;;;;;0.30;0.17;;;;;;;6.85;76.19;102591.63;15753229;28;20126;-50
2023/12/17 17:26:35;;;;;;;0.00;0.00;;;;;;;6.59;76.80;102591.31;15752743;28;20066;-49
2023/12/17 17:34:11;;;;;;;0.05;0.05;;;;;;;6.46;77.27;102581.88;15749444;28;20045;-51
2023/12/17 17:41:49;;;;;;;0.10;0.10;;;;;;;6.40;77.85;102583.28;15750020;28;20508;-56
2023/12/17 17:49:24;;;;;;;0.00;0.00;;;;;;;6.51;77.00;102575.13;15759719;22;20059;-52
2023/12/17 17:56:58;;;;;;;0.32;0.28;;;;;;;6.57;76.09;102577.25;15734233;28;20107;-51
2023/12/17 18:04:33;;;;;;;0.10;0.10;;;;;;;6.36;76.62;102580.03;15686567;28;20056;-55
2023/12/17 18:12:07;;;;;;;0.10;0.10;;;;;;;6.69;75.67;102580.63;15679060;28;20041;-50
2023/12/17 18:19:43;;;;;;;;;;;;;;;6.60;75.46;102584.13;15662694;28;20044;-52
2023/12/17 18:27:17;;;;;;;0.00;0.00;;;;;;;6.06;76.74;102550.75;15675449;28;19947;-53
2023/12/17 18:34:52;;;;;;;0.00;0.00;;;;;;;6.13;76.69;102568.75;15679986;28;20041;-57
2023/12/17 18:42:26;;;;;;;0.52;0.45;;;;;;;5.94;76.74;102531.38;15660763;28;20079;-56
2023/12/17 18:50:00;;;;;;;0.30;0.25;;;;;;;6.08;76.43;102556.81;15650924;28;20045;-56
2023/12/17 18:57:34;;;;;;;0.00;0.00;;;;;;;6.06;76.83;102556.09;15654042;28;20575;-51
2023/12/17 19:05:09;;;;;;;0.00;0.00;;;;;;;5.94;77.02;102549.19;15674854;28;20200;-55
2023/12/17 19:12:42;;;;;;;0.30;0.30;;;;;;;6.01;76.68;102558.31;15658334;28;20135;-50
2023/12/17 19:20:17;;;;;;;0.00;0.00;;;;;;;5.92;76.25;102554.63;15676196;28;20040;-49
2023/12/17 19:27:51;;;;;;;0.10;0.10;;;;;;;5.75;76.37;102552.59;15634930;28;20077;-49
2023/12/17 19:35:25;;;;;;;0.95;0.47;;;;;;;5.89;76.31;102558.41;15600608;28;20033;-50
2023/12/17 19:42:59;;;;;;;0.00;0.00;;;;;;;5.96;76.22;102553.41;15619561;28;20128;-48
2023/12/17 19:50:33;;;;;;;1.35;0.52;;;;;;;5.83;75.96;102555.44;15642384;28;20050;-56
2023/12/17 19:58:06;;;;;;;0.10;0.10;;;;;;;5.97;75.79;102554.22;15620112;28;20041;-47
2023/12/17 20:05:42;;;;;;;0.45;0.45;;;;;;;5.62;75.88;102551.00;15674000;28;20125;-55
2023/12/17 20:13:15;;;;;;;0.00;0.00;;;;;;;5.61;76.16;102554.63;15670016;28;20041;-49
2023/12/17 20:20:51;;;;;;;0.00;0.00;;;;;;;5.75;75.73;102550.78;15652452;28;20044;-48
2023/12/17 20:28:24;;;;;;;0.20;0.20;;;;;;;5.61;75.50;102551.97;15655830;28;20119;-54
2023/12/17 20:36:00;;;;;;;1.40;1.02;;;;;;;5.69;75.87;102556.66;15669720;28;20537;-49
2023/12/17 20:43:34;;;;;;;0.00;0.00;;;;;;;5.53;76.48;102565.09;15667801;28;20514;-47
2023/12/17 20:51:10;;;;;;;0.00;0.00;;;;;;;5.24;77.11;102554.28;15670355;28;20454;-48
2023/12/17 20:58:45;;;;;;;0.28;0.28;;;;;;;5.31;76.45;102562.59;15654082;28;20037;-48
2023/12/17 21:06:23;;;;;;;0.00;0.00;;;;;;;5.06;77.50;102569.16;15639370;28;20033;-50
2023/12/17 21:13:57;;;;;;;0.00;0.00;;;;;;;5.47;75.89;102565.66;15620826;28;20413;-48
2023/12/17 21:21:32;;;;;;;0.63;0.63;;;;;;;4.82;78.54;102554.28;15669943;28;20500;-54
2023/12/17 21:29:06;;;;;;;0.50;0.50;;;;;;;5.24;76.53;102564.09;15665955;28;20063;-48
2023/12/17 21:36:41;;;;;;;0.17;0.17;;;;;;;5.09;76.84;102556.44;15652241;28;20049;-49
2023/12/17 21:44:14;;;;;;;0.00;0.00;;;;;;;4.90;77.82;102558.97;15618162;28;20076;-51
2023/12/17 21:51:49;;;;;;;0.00;0.00;;;;;;;5.14;77.39;102561.38;15644547;28;20107;-53
2023/12/17 21:59:23;;;;;;;1.25;0.52;;;;;;;5.06;77.38;102567.34;15628417;28;20065;-50
2023/12/17 22:06:57;;;;;;;0.00;0.00;;;;;;;5.19;76.58;102564.50;15680440;28;20056;-50
2023/12/17 22:14:31;;;;;;;0.00;0.00;;;;;;;5.00;77.82;102559.03;15661548;28;20029;-52
2023/12/17 22:22:06;;;;;;;0.00;0.00;;;;;;;5.08;77.65;102551.22;15686127;28;20036;-52
2023/12/17 22:29:39;;;;;;;0.00;0.00;;;;;;;5.12;77.33;102553.50;15680585;28;20057;-53
2023/12/17 22:37:15;;;;;;;;;;;;;;;5.31;77.31;102546.63;15624632;28;20565;-52
2023/12/17 22:44:49;;;;;;;0.55;0.55;;;;;;;5.16;77.65;102540.78;15607650;28;20344;-54
2023/12/17 22:52:23;;;;;;;0.73;0.65;;;;;;;4.95;78.62;102531.97;15649322;28;20500;-52
2023/12/17 22:59:57;;;;;;;0.00;0.00;;;;;;;5.05;79.05;102525.75;15661064;28;20052;-54
2023/12/17 23:07:32;;;;;;;0.00;0.00;;;;;;;5.14;78.10;102512.63;15673138;28;20044;-54
2023/12/17 23:15:07;;;;;;;0.00;0.00;;;;;;;4.78;79.99;102517.41;15658849;28;20095;-53
2023/12/17 23:22:42;;;;;;;0.45;0.45;;;;;;;4.93;78.92;102524.09;15672962;28;20060;-54
2023/12/17 23:30:15;;;;;;;0.80;0.32;;;;;;;4.91;78.81;102510.09;15674891;28;20469;-53
2023/12/17 23:37:50;;;;;;;0.08;0.08;;;;;;;5.07;79.10;102499.81;15633324;28;20410;-52
2023/12/17 23:45:25;;;;;;;0.52;0.52;;;;;;;4.99;79.74;102502.31;15638189;22;20040;-50
2023/12/17 23:53:00;;;;;;;0.30;0.30;;;;;;;5.20;78.60;102493.47;15736928;28;20131;-47
